Time;durP1;ratioP1;P1;durP2;ratioP2;P2;SDS_P1;SDS_P2;PMS_P1;PMS_P2;Temp;Humidity;BMP_temperature;BMP_pressure;BME280_temperature;BME280_humidity;BME280_pressure;Samples;Min_cycle;Max_cycle;Signal;HPM_P1;HPM_P2
2020/12/07 00:02:20;;;;;;;17.03;10.50;;;9.70;99.90;;;;;;4969259;29;20518;-67
2020/12/07 00:04:47;;;;;;;21.10;11.30;;;9.70;99.90;;;;;;4968201;29;20455;-68
2020/12/07 00:07:13;;;;;;;17.13;9.80;;;9.70;99.90;;;;;;4969778;29;20460;-67
2020/12/07 00:09:40;;;;;;;17.73;10.10;;;9.70;99.90;;;;;;4969190;29;20456;-68
2020/12/07 00:12:07;;;;;;;18.70;10.60;;;9.70;99.90;;;;;;4968517;29;20448;-67
2020/12/07 00:14:34;;;;;;;19.00;10.27;;;9.70;99.90;;;;;;4969004;29;20539;-67
2020/12/07 00:17:00;;;;;;;16.17;10.23;;;9.60;99.90;;;;;;4968740;29;20480;-67
2020/12/07 00:19:27;;;;;;;15.60;9.40;;;9.60;99.90;;;;;;4968023;29;20448;-68
2020/12/07 00:21:53;;;;;;;15.63;9.77;;;9.60;99.90;;;;;;4967893;29;20466;-67
2020/12/07 00:24:19;;;;;;;18.43;11.87;;;9.60;99.90;;;;;;4957628;29;20475;-67
2020/12/07 00:26:47;;;;;;;15.83;9.50;;;9.60;99.90;;;;;;4957131;29;20840;-68
2020/12/07 00:29:13;;;;;;;14.67;9.47;;;9.60;99.90;;;;;;4965996;29;20531;-68
2020/12/07 00:31:39;;;;;;;17.53;11.53;;;9.60;99.90;;;;;;4969017;28;20487;-67
2020/12/07 00:34:06;;;;;;;20.23;11.20;;;9.50;99.90;;;;;;4968810;29;20552;-68
2020/12/07 00:36:32;;;;;;;16.87;10.97;;;9.50;99.90;;;;;;4969241;29;20508;-68
2020/12/07 00:38:58;;;;;;;18.70;11.47;;;9.50;99.90;;;;;;4968843;28;20444;-67
2020/12/07 00:41:25;;;;;;;16.23;10.70;;;9.50;99.90;;;;;;4956794;28;20508;-67
2020/12/07 00:43:52;;;;;;;18.43;11.40;;;9.50;99.90;;;;;;4948605;29;20474;-66
2020/12/07 00:46:19;;;;;;;17.93;11.90;;;9.50;99.90;;;;;;4961846;29;20475;-67
2020/12/07 00:48:45;;;;;;;16.80;10.60;;;9.40;99.90;;;;;;4948939;29;20460;-67
2020/12/07 00:51:12;;;;;;;16.10;10.63;;;9.40;99.90;;;;;;4949735;29;20445;-67
2020/12/07 00:53:38;;;;;;;19.93;9.80;;;9.40;99.90;;;;;;4949302;29;20536;-66
2020/12/07 00:56:05;;;;;;;13.27;9.97;;;9.40;99.90;;;;;;4949502;29;20480;-67
2020/12/07 00:58:31;;;;;;;25.60;11.03;;;9.40;99.90;;;;;;4950810;29;20452;-67
2020/12/07 01:00:58;;;;;;;18.87;11.47;;;9.40;99.90;;;;;;4949927;29;20479;-67
2020/12/07 01:03:25;;;;;;;17.60;10.27;;;9.40;99.90;;;;;;4950115;29;20457;-66
2020/12/07 01:05:52;;;;;;;21.80;10.87;;;9.50;99.90;;;;;;4949795;29;20520;-67
2020/12/07 01:08:19;;;;;;;17.57;11.17;;;9.40;99.90;;;;;;4949166;29;20459;-68
2020/12/07 01:10:45;;;;;;;14.60;10.53;;;9.40;99.90;;;;;;4948889;29;20460;-68
2020/12/07 01:13:12;;;;;;;19.37;10.03;;;9.40;99.90;;;;;;4948945;29;20512;-67
2020/12/07 01:15:38;;;;;;;21.40;12.10;;;9.40;99.90;;;;;;4948644;29;20475;-68
2020/12/07 01:18:06;;;;;;;21.50;11.77;;;9.50;99.90;;;;;;4949401;29;20460;-68
2020/12/07 01:20:33;;;;;;;18.97;11.47;;;9.50;99.90;;;;;;4949361;29;20902;-67
2020/12/07 01:22:59;;;;;;;18.03;11.00;;;9.50;99.90;;;;;;4948923;29;20445;-68
2020/12/07 01:25:26;;;;;;;15.87;9.83;;;9.50;99.90;;;;;;4948162;29;20496;-67
2020/12/07 01:27:52;;;;;;;20.40;11.67;;;9.50;99.90;;;;;;4948748;29;20496;-68
2020/12/07 01:30:18;;;;;;;18.70;11.23;;;9.50;99.90;;;;;;4949806;29;20540;-67
2020/12/07 01:32:47;;;;;;;19.77;10.97;;;9.50;99.90;;;;;;4948942;29;20467;-68
2020/12/07 01:35:14;;;;;;;22.90;11.50;;;9.60;99.90;;;;;;4949204;29;20551;-68
2020/12/07 01:37:41;;;;;;;18.80;10.47;;;9.60;99.90;;;;;;4948705;29;20483;-68
2020/12/07 01:40:07;;;;;;;18.70;11.70;;;9.60;99.90;;;;;;4952052;29;20511;-66
2020/12/07 01:42:34;;;;;;;20.87;12.00;;;9.60;99.90;;;;;;4968384;29;20486;-68
2020/12/07 01:45:03;;;;;;;20.67;12.23;;;9.60;99.90;;;;;;4967039;29;20539;-67
2020/12/07 01:47:35;;;;;;;18.03;11.50;;;9.60;99.90;;;;;;4967920;29;20471;-69
2020/12/07 01:50:02;;;;;;;18.97;11.00;;;9.60;99.90;;;;;;4969291;28;20483;-67
2020/12/07 01:52:30;;;;;;;23.40;11.73;;;9.60;99.90;;;;;;4972006;29;20551;-67
2020/12/07 01:54:56;;;;;;;20.27;11.90;;;9.60;99.90;;;;;;4970492;29;20515;-67
2020/12/07 01:57:23;;;;;;;19.87;11.53;;;9.60;99.90;;;;;;4971659;29;20460;-67
2020/12/07 01:59:49;;;;;;;19.17;10.90;;;9.60;99.90;;;;;;4972034;29;20478;-68
2020/12/07 02:02:15;;;;;;;18.27;11.17;;;9.70;99.90;;;;;;4971488;29;20523;-68
2020/12/07 02:04:43;;;;;;;26.13;11.30;;;9.70;99.90;;;;;;4971167;29;20485;-67
2020/12/07 02:07:18;;;;;;;19.27;11.53;;;9.70;99.90;;;;;;4969888;29;20482;-67
2020/12/07 02:09:45;;;;;;;18.33;10.50;;;9.70;99.90;;;;;;4970432;29;20522;-67
2020/12/07 02:12:12;;;;;;;15.77;10.77;;;9.70;99.90;;;;;;4969974;29;20495;-68
2020/12/07 02:14:38;;;;;;;16.60;10.30;;;9.70;99.90;;;;;;4971498;29;20526;-67
2020/12/07 02:17:05;;;;;;;20.70;11.90;;;9.60;99.90;;;;;;4970433;29;20502;-67
2020/12/07 02:19:33;;;;;;;16.60;11.73;;;9.70;99.90;;;;;;4970980;29;20444;-67
2020/12/07 02:22:00;;;;;;;17.20;9.70;;;9.70;99.90;;;;;;4970759;29;20501;-67
2020/12/07 02:24:26;;;;;;;15.83;11.63;;;9.70;99.90;;;;;;4970935;29;20539;-68
2020/12/07 02:26:53;;;;;;;14.20;10.30;;;9.60;99.90;;;;;;4971302;29;20480;-68
2020/12/07 02:29:19;;;;;;;19.43;11.80;;;9.50;99.90;;;;;;4970200;29;20452;-68
2020/12/07 02:31:46;;;;;;;16.87;11.67;;;9.50;99.90;;;;;;4971645;29;20916;-67
2020/12/07 02:34:12;;;;;;;17.77;10.83;;;9.40;99.90;;;;;;4972080;29;20575;-68
2020/12/07 02:36:38;;;;;;;19.07;10.80;;;9.40;99.90;;;;;;4970958;29;20487;-67
2020/12/07 02:39:06;;;;;;;19.20;12.10;;;9.40;99.90;;;;;;4971424;29;20478;-68
2020/12/07 02:41:32;;;;;;;15.10;10.73;;;9.40;99.90;;;;;;4970921;29;20514;-68
2020/12/07 02:43:58;;;;;;;17.60;9.00;;;9.30;99.90;;;;;;4970967;29;20470;-68
2020/12/07 02:46:28;;;;;;;20.53;12.23;;;9.40;99.90;;;;;;4971015;29;20495;-68
2020/12/07 02:48:54;;;;;;;18.50;11.00;;;9.30;99.90;;;;;;4970342;29;20487;-68
2020/12/07 02:51:20;;;;;;;21.83;11.53;;;9.30;99.90;;;;;;4969106;29;20479;-68
2020/12/07 02:53:47;;;;;;;15.53;11.67;;;9.40;99.90;;;;;;4970176;29;20527;-69
2020/12/07 02:56:14;;;;;;;18.50;11.37;;;9.30;99.90;;;;;;4971719;28;20477;-69
2020/12/07 02:58:41;;;;;;;20.67;11.90;;;9.30;99.90;;;;;;4968683;28;20472;-68
2020/12/07 03:01:07;;;;;;;20.77;12.27;;;9.30;99.90;;;;;;4966739;28;20494;-67
2020/12/07 03:03:33;;;;;;;16.50;10.53;;;9.30;99.90;;;;;;4967922;29;20492;-69
2020/12/07 03:06:00;;;;;;;17.47;11.67;;;9.30;99.90;;;;;;4972369;29;20508;-67
2020/12/07 03:08:26;;;;;;;19.20;11.40;;;9.30;99.90;;;;;;4972263;29;20447;-67
2020/12/07 03:10:52;;;;;;;14.83;10.70;;;9.30;99.90;;;;;;4971950;29;20460;-67
2020/12/07 03:13:19;;;;;;;19.87;11.17;;;9.30;99.90;;;;;;4971225;29;20510;-67
2020/12/07 03:15:50;;;;;;;15.97;11.37;;;9.30;99.90;;;;;;5006183;23;20623;-67
2020/12/07 03:26:03;;;;;;;23.57;13.10;;;9.30;99.90;;;;;;5030674;23;20482;-67
2020/12/07 03:28:30;;;;;;;17.80;12.23;;;9.30;99.90;;;;;;4995546;28;20446;-68
2020/12/07 03:30:56;;;;;;;14.73;10.47;;;9.30;99.90;;;;;;4995920;28;20448;-66
2020/12/07 03:33:23;;;;;;;18.13;12.10;;;9.30;99.90;;;;;;4995478;28;20585;-68
2020/12/07 03:35:49;;;;;;;20.00;11.90;;;9.30;99.90;;;;;;4996038;28;20534;-67
2020/12/07 03:38:16;;;;;;;18.53;11.10;;;9.30;99.90;;;;;;4995767;28;20541;-67
2020/12/07 03:40:42;;;;;;;14.00;10.57;;;9.30;99.90;;;;;;4995606;28;20978;-67
2020/12/07 03:43:08;;;;;;;20.30;10.43;;;9.30;99.90;;;;;;4995625;28;20511;-67
2020/12/07 03:45:36;;;;;;;16.80;10.83;;;9.20;99.90;;;;;;4995801;28;20560;-67
2020/12/07 03:48:02;;;;;;;18.87;11.37;;;9.20;99.90;;;;;;4995413;28;20553;-68
2020/12/07 03:50:28;;;;;;;18.93;12.50;;;9.20;99.90;;;;;;4995592;28;20435;-70
2020/12/07 03:52:55;;;;;;;18.90;12.07;;;9.20;99.90;;;;;;4995729;28;20545;-68
2020/12/07 03:55:21;;;;;;;18.33;11.80;;;9.20;99.90;;;;;;4995300;28;20541;-69
2020/12/07 03:57:47;;;;;;;20.90;12.43;;;9.20;99.90;;;;;;4996692;28;20557;-70
2020/12/07 04:00:14;;;;;;;16.77;11.43;;;9.30;99.90;;;;;;4995462;28;20529;-68
2020/12/07 04:02:41;;;;;;;17.17;10.63;;;9.30;99.90;;;;;;4994886;28;20553;-68
2020/12/07 04:05:14;;;;;;;16.23;10.50;;;9.30;99.90;;;;;;4995657;28;20542;-68
2020/12/07 04:07:41;;;;;;;19.57;11.57;;;9.20;99.90;;;;;;4995185;28;20461;-67
2020/12/07 04:10:08;;;;;;;16.60;11.40;;;9.20;99.90;;;;;;4994869;28;20493;-67
2020/12/07 04:12:34;;;;;;;20.50;12.17;;;9.20;99.90;;;;;;4994457;28;20538;-68
2020/12/07 04:15:01;;;;;;;20.10;11.03;;;9.20;99.90;;;;;;4995008;28;20574;-67
2020/12/07 04:17:27;;;;;;;23.50;11.83;;;9.20;99.90;;;;;;4994798;28;20489;-67
2020/12/07 04:19:54;;;;;;;20.67;10.73;;;9.10;99.90;;;;;;4995001;28;20862;-68
2020/12/07 04:22:21;;;;;;;20.97;11.57;;;9.10;99.90;;;;;;4995152;28;20442;-69
2020/12/07 04:24:47;;;;;;;15.97;10.90;;;9.10;99.90;;;;;;4994805;28;20484;-67
2020/12/07 04:27:14;;;;;;;17.50;10.93;;;9.10;99.90;;;;;;4994988;28;20845;-67
2020/12/07 04:29:40;;;;;;;23.57;12.50;;;9.20;99.90;;;;;;4995128;28;20541;-68
2020/12/07 04:32:06;;;;;;;19.30;11.77;;;9.10;99.90;;;;;;4999332;28;20483;-67
2020/12/07 04:34:33;;;;;;;20.43;11.00;;;9.10;99.90;;;;;;5014611;28;20527;-69
2020/12/07 04:37:00;;;;;;;20.70;12.10;;;9.10;99.90;;;;;;5014304;28;20524;-68
2020/12/07 04:39:26;;;;;;;18.33;11.77;;;9.10;99.90;;;;;;5014249;28;20508;-68
2020/12/07 04:41:53;;;;;;;15.97;10.67;;;9.10;99.90;;;;;;5001063;28;20501;-68
2020/12/07 04:44:19;;;;;;;17.77;11.77;;;9.10;99.90;;;;;;4995943;28;20442;-67
2020/12/07 04:46:46;;;;;;;18.03;11.30;;;9.10;99.90;;;;;;4996013;28;20446;-67
2020/12/07 04:49:14;;;;;;;16.13;10.93;;;9.10;99.90;;;;;;4996305;28;20453;-67
2020/12/07 04:51:42;;;;;;;21.40;12.20;;;9.10;99.90;;;;;;4996024;28;20442;-67
2020/12/07 04:54:13;;;;;;;16.03;11.63;;;9.10;99.90;;;;;;4995538;28;21029;-68
2020/12/07 04:56:40;;;;;;;17.20;12.50;;;9.10;99.90;;;;;;4995405;28;20557;-67
2020/12/07 04:59:09;;;;;;;19.80;10.93;;;9.10;99.90;;;;;;4995326;28;20457;-68
2020/12/07 05:01:35;;;;;;;23.90;12.13;;;9.10;99.90;;;;;;4995595;28;20557;-68
2020/12/07 05:04:02;;;;;;;16.40;10.57;;;9.10;99.90;;;;;;4996098;28;20525;-68
2020/12/07 05:06:30;;;;;;;17.60;10.90;;;9.10;99.90;;;;;;4995096;28;20544;-68
2020/12/07 05:08:57;;;;;;;23.07;14.40;;;9.00;99.90;;;;;;4998632;28;20438;-67
2020/12/07 05:11:25;;;;;;;18.90;11.70;;;9.00;99.90;;;;;;4998516;28;20542;-69
2020/12/07 05:13:57;;;;;;;17.80;10.90;;;9.00;99.90;;;;;;4996632;28;20489;-68
2020/12/07 05:16:24;;;;;;;19.40;10.87;;;9.00;99.90;;;;;;5007951;28;20457;-68
2020/12/07 05:18:51;;;;;;;18.53;11.03;;;9.00;99.90;;;;;;5003409;28;20462;-67
2020/12/07 05:21:18;;;;;;;21.50;12.40;;;9.10;99.90;;;;;;4994403;28;20547;-67
2020/12/07 05:23:51;;;;;;;19.90;11.17;;;9.00;99.90;;;;;;4995176;28;20539;-67
2020/12/07 05:26:18;;;;;;;18.83;12.53;;;9.00;99.90;;;;;;4998237;28;20787;-68
2020/12/07 05:28:49;;;;;;;15.90;11.07;;;9.00;99.90;;;;;;4998456;28;20544;-68
2020/12/07 05:31:17;;;;;;;22.90;10.93;;;8.90;99.90;;;;;;4998084;28;20474;-68
2020/12/07 05:33:45;;;;;;;22.40;13.67;;;8.90;99.90;;;;;;4997788;28;20994;-67
2020/12/07 05:36:11;;;;;;;21.40;12.27;;;8.90;99.90;;;;;;4998398;28;20537;-69
2020/12/07 05:38:38;;;;;;;19.03;12.10;;;8.90;99.90;;;;;;4998087;28;20541;-68
2020/12/07 05:41:05;;;;;;;16.40;10.97;;;8.90;99.90;;;;;;4997602;28;21010;-69
2020/12/07 05:43:32;;;;;;;15.97;10.70;;;8.80;99.90;;;;;;4998285;28;20922;-68
2020/12/07 05:46:00;;;;;;;17.73;11.60;;;8.90;99.90;;;;;;4998073;28;20885;-68
2020/12/07 05:48:30;;;;;;;15.67;11.37;;;8.80;99.90;;;;;;4997976;28;20661;-67
2020/12/07 07:14:14;;;;;;;19.27;12.20;;;8.60;99.90;;;;;;5963611;23;20527;-66
2020/12/07 07:16:40;;;;;;;20.30;12.33;;;8.60;99.90;;;;;;4995044;28;20480;-67
2020/12/07 07:19:07;;;;;;;23.13;11.67;;;8.60;99.90;;;;;;4996197;28;20485;-67
2020/12/07 07:21:49;;;;;;;17.80;11.93;;;8.60;99.90;;;;;;4996515;28;20460;-71
2020/12/07 07:24:15;;;;;;;18.40;13.07;;;8.60;99.90;;;;;;4996529;28;20454;-69
2020/12/07 07:26:44;;;;;;;18.60;13.47;;;8.60;99.90;;;;;;4995930;28;20854;-68
2020/12/07 07:29:10;;;;;;;17.47;11.23;;;8.60;99.90;;;;;;4995848;28;20450;-67
2020/12/07 07:31:38;;;;;;;18.40;12.07;;;8.70;99.90;;;;;;4996073;28;20446;-68
2020/12/07 07:34:04;;;;;;;23.60;14.30;;;8.70;99.90;;;;;;4995424;28;20815;-68
2020/12/07 07:36:30;;;;;;;19.47;12.90;;;8.70;99.90;;;;;;4996142;28;20434;-67
2020/12/07 07:38:58;;;;;;;22.20;12.70;;;8.70;99.90;;;;;;4995661;28;20951;-67
2020/12/07 07:41:26;;;;;;;15.47;11.07;;;8.70;99.90;;;;;;4995942;28;20462;-67
2020/12/07 07:43:53;;;;;;;19.13;12.27;;;8.70;99.90;;;;;;4995739;28;20452;-68
2020/12/07 07:46:20;;;;;;;20.13;12.43;;;8.70;99.90;;;;;;4995633;28;20795;-67
2020/12/07 07:49:05;;;;;;;19.07;12.37;;;8.70;99.90;;;;;;5000365;28;20531;-68
2020/12/07 08:12:10;;;;;;;17.63;11.17;;;8.80;99.90;;;;;;5003166;28;20424;-67
2020/12/07 08:17:13;;;;;;;20.67;13.53;;;8.80;99.90;;;;;;5000496;28;20495;-67
2020/12/07 08:19:44;;;;;;;16.27;11.70;;;8.80;99.90;;;;;;5003650;28;20458;-68
2020/12/07 08:22:16;;;;;;;21.33;12.87;;;8.80;99.90;;;;;;5003559;28;20513;-68
2020/12/07 08:24:53;;;;;;;21.30;12.27;;;8.90;99.90;;;;;;5003484;28;20472;-66
2020/12/07 08:27:19;;;;;;;18.37;12.50;;;8.90;99.90;;;;;;5003348;28;20871;-67
2020/12/07 08:29:46;;;;;;;24.27;11.30;;;8.90;99.90;;;;;;5003252;28;20481;-67
2020/12/07 08:32:30;;;;;;;19.53;11.47;;;9.00;99.90;;;;;;5003228;28;20434;-66
2020/12/07 08:34:56;;;;;;;18.50;12.80;;;9.10;99.90;;;;;;5002948;28;20553;-66
2020/12/07 08:37:25;;;;;;;16.63;11.30;;;9.10;99.90;;;;;;5003017;28;20477;-67
2020/12/07 08:39:52;;;;;;;17.10;12.63;;;9.10;99.90;;;;;;5002975;28;20837;-66
2020/12/07 08:42:19;;;;;;;19.60;13.50;;;9.10;99.90;;;;;;4995499;28;20478;-67
2020/12/07 08:44:45;;;;;;;19.57;11.97;;;9.10;99.90;;;;;;4981736;28;20490;-66
2020/12/07 08:47:14;;;;;;;18.77;11.60;;;9.00;99.90;;;;;;4983110;28;20530;-66
2020/12/07 08:49:49;;;;;;;24.03;12.73;;;9.00;99.90;;;;;;4983449;28;20514;-67
2020/12/07 08:52:15;;;;;;;22.93;13.73;;;9.00;99.90;;;;;;4983309;28;20470;-67
2020/12/07 08:54:43;;;;;;;22.53;12.20;;;9.00;99.90;;;;;;4983465;28;20486;-66
2020/12/07 08:57:09;;;;;;;19.13;11.53;;;9.00;99.90;;;;;;4982382;28;20451;-67
2020/12/07 08:59:36;;;;;;;18.30;11.67;;;9.00;99.90;;;;;;4982616;28;20461;-67
2020/12/07 09:02:03;;;;;;;18.87;11.37;;;9.10;99.90;;;;;;4983163;28;20820;-67
2020/12/07 09:04:30;;;;;;;20.47;12.77;;;9.10;99.90;;;;;;4982588;28;20455;-66
2020/12/07 09:06:57;;;;;;;22.03;12.23;;;9.10;99.90;;;;;;4982831;28;20922;-67
2020/12/07 09:09:23;;;;;;;21.93;12.00;;;9.20;99.90;;;;;;4982876;28;20490;-67
2020/12/07 09:11:51;;;;;;;23.40;12.33;;;9.10;99.90;;;;;;4982671;28;20477;-67
2020/12/07 09:14:18;;;;;;;23.13;13.10;;;9.20;99.90;;;;;;4982222;28;20482;-66
2020/12/07 09:16:44;;;;;;;20.00;11.70;;;9.20;99.90;;;;;;4990757;28;20490;-66
2020/12/07 09:19:11;;;;;;;26.90;14.13;;;9.30;99.90;;;;;;4996045;28;20975;-66
2020/12/07 09:21:38;;;;;;;24.47;13.03;;;9.30;99.90;;;;;;4994578;28;20454;-67
2020/12/07 09:24:05;;;;;;;17.53;12.80;;;9.30;99.90;;;;;;4993366;28;20483;-67
2020/12/07 09:26:32;;;;;;;19.13;13.50;;;9.30;99.90;;;;;;4993735;28;20506;-67
2020/12/07 09:28:59;;;;;;;17.33;12.17;;;9.20;99.90;;;;;;4994402;28;20456;-66
2020/12/07 09:31:26;;;;;;;25.20;13.07;;;9.30;99.90;;;;;;4994392;28;20508;-66
2020/12/07 09:33:53;;;;;;;18.20;12.00;;;9.30;99.90;;;;;;4994238;28;20504;-66
2020/12/07 09:36:20;;;;;;;20.90;12.77;;;9.30;99.90;;;;;;4994574;28;20446;-66
2020/12/07 09:38:46;;;;;;;18.43;12.00;;;9.40;99.90;;;;;;4993918;28;20496;-67
2020/12/07 09:41:13;;;;;;;24.70;12.77;;;9.30;99.90;;;;;;4994191;28;20541;-67
2020/12/07 09:43:40;;;;;;;21.10;12.47;;;9.30;99.90;;;;;;4994104;28;20533;-67
2020/12/07 09:46:07;;;;;;;18.97;11.53;;;9.30;99.90;;;;;;4993922;28;20452;-67
2020/12/07 09:48:34;;;;;;;24.83;14.47;;;9.30;99.90;;;;;;4992013;28;20939;-67
2020/12/07 09:51:00;;;;;;;20.33;13.27;;;9.30;99.90;;;;;;4993717;28;20457;-66
2020/12/07 09:53:27;;;;;;;15.93;11.27;;;9.40;99.90;;;;;;4983303;28;20446;-67
2020/12/07 10:16:37;;;;;;;20.63;13.20;;;9.30;99.90;;;;;;5589687;23;20524;-66
2020/12/07 10:19:04;;;;;;;18.10;11.90;;;9.30;99.90;;;;;;4991142;28;20946;-65
2020/12/07 10:21:33;;;;;;;24.60;13.57;;;9.20;99.90;;;;;;4996967;28;20919;-65
2020/12/07 10:24:00;;;;;;;20.33;14.33;;;9.10;99.90;;;;;;4996641;28;20478;-65
2020/12/07 10:26:27;;;;;;;18.60;11.37;;;9.10;99.90;;;;;;4999213;28;20534;-65
2020/12/07 10:28:54;;;;;;;20.97;11.03;;;9.10;99.90;;;;;;5000485;28;20461;-64
2020/12/07 10:31:22;;;;;;;20.83;12.60;;;9.10;99.90;;;;;;4999053;28;20438;-66
2020/12/07 10:33:50;;;;;;;17.63;13.13;;;9.10;99.90;;;;;;4997373;28;20457;-65
2020/12/07 10:36:18;;;;;;;16.27;11.77;;;9.10;99.90;;;;;;4997820;28;20469;-66
2020/12/07 10:38:45;;;;;;;22.37;12.80;;;9.10;99.90;;;;;;4997046;28;20520;-66
2020/12/07 10:41:13;;;;;;;18.53;11.60;;;9.00;99.90;;;;;;4997401;28;20454;-65
2020/12/07 10:43:40;;;;;;;21.87;13.67;;;9.10;99.90;;;;;;4999211;28;20442;-66
2020/12/07 10:46:07;;;;;;;22.63;12.77;;;9.10;99.90;;;;;;4998308;28;20472;-65
2020/12/07 10:48:34;;;;;;;18.73;12.80;;;9.10;99.90;;;;;;4998497;28;20470;-66
2020/12/07 10:51:02;;;;;;;20.83;13.10;;;9.20;99.90;;;;;;4998165;28;20473;-65
2020/12/07 10:53:29;;;;;;;16.93;11.40;;;9.20;99.90;;;;;;4996370;28;20470;-65
2020/12/07 10:55:55;;;;;;;20.30;12.70;;;9.20;99.90;;;;;;4995740;28;20568;-65
2020/12/07 10:58:22;;;;;;;29.53;15.17;;;9.20;99.90;;;;;;4995912;28;20434;-64
2020/12/07 11:00:51;;;;;;;21.47;13.10;;;9.30;99.90;;;;;;4998445;28;20442;-66
2020/12/07 11:03:21;;;;;;;17.20;11.43;;;9.30;99.90;;;;;;4996150;28;20458;-65
2020/12/07 11:06:13;;;;;;;20.37;11.77;;;9.30;99.90;;;;;;4999692;28;20466;-69
2020/12/07 11:08:48;;;;;;;21.30;13.80;;;9.40;99.90;;;;;;4996490;28;20771;-66
2020/12/07 11:11:16;;;;;;;24.93;13.70;;;9.40;99.90;;;;;;4996416;28;20465;-65
2020/12/07 11:13:43;;;;;;;24.80;12.40;;;9.40;99.90;;;;;;4995942;28;20442;-65
2020/12/07 11:16:14;;;;;;;19.47;13.23;;;9.40;99.90;;;;;;4997253;28;20473;-66
2020/12/07 11:18:41;;;;;;;21.93;12.10;;;9.40;99.90;;;;;;4998437;28;20446;-65
2020/12/07 11:21:15;;;;;;;20.73;12.07;;;9.40;99.90;;;;;;4997074;28;20462;-66
2020/12/07 11:23:43;;;;;;;29.53;13.70;;;9.40;99.90;;;;;;4997121;28;20484;-66
2020/12/07 11:26:11;;;;;;;25.67;14.90;;;9.30;99.90;;;;;;4998651;28;20454;-66
2020/12/07 11:28:38;;;;;;;19.00;11.97;;;9.30;99.90;;;;;;4998108;28;20473;-65
2020/12/07 11:31:05;;;;;;;23.03;15.10;;;9.30;99.90;;;;;;4998034;28;20438;-65
2020/12/07 11:33:32;;;;;;;18.23;13.70;;;9.30;99.90;;;;;;4996528;28;20534;-67
2020/12/07 11:35:59;;;;;;;17.77;12.80;;;9.30;99.90;;;;;;4997026;28;20488;-66
2020/12/07 11:38:30;;;;;;;20.80;13.63;;;9.30;99.90;;;;;;4999148;28;20473;-66
2020/12/07 11:41:12;;;;;;;19.27;12.13;;;9.30;99.90;;;;;;4998852;28;20561;-67
2020/12/07 11:43:45;;;;;;;21.13;12.90;;;9.30;99.90;;;;;;4998979;28;20898;-67
2020/12/07 11:46:17;;;;;;;17.67;11.70;;;9.30;99.90;;;;;;4999787;28;20461;-67
2020/12/07 11:48:44;;;;;;;18.83;12.50;;;9.30;99.90;;;;;;4998511;28;20482;-66
2020/12/07 11:51:11;;;;;;;18.00;12.50;;;9.30;99.90;;;;;;4998835;28;20923;-67
2020/12/07 11:53:38;;;;;;;22.17;13.03;;;9.30;99.90;;;;;;4999067;28;20461;-67
2020/12/07 11:56:05;;;;;;;26.63;13.17;;;9.20;99.90;;;;;;4999060;28;20569;-66
2020/12/07 11:58:32;;;;;;;25.73;13.90;;;9.20;99.90;;;;;;4999167;28;20449;-66
2020/12/07 12:00:58;;;;;;;19.80;12.90;;;9.10;99.90;;;;;;4998809;28;20446;-65
2020/12/07 12:03:26;;;;;;;20.17;13.73;;;9.10;99.90;;;;;;4998612;28;20568;-66
2020/12/07 12:05:52;;;;;;;20.53;12.73;;;9.10;99.90;;;;;;4998429;28;20512;-66
2020/12/07 12:08:19;;;;;;;20.97;12.80;;;9.10;99.90;;;;;;4998805;28;20804;-66
2020/12/07 12:10:50;;;;;;;21.60;13.13;;;9.10;99.90;;;;;;4998348;28;20466;-64
2020/12/07 12:13:16;;;;;;;23.07;13.30;;;9.20;99.90;;;;;;4998084;28;20442;-64
2020/12/07 12:15:43;;;;;;;21.57;12.17;;;9.20;99.90;;;;;;4998545;28;20496;-66
2020/12/07 12:18:10;;;;;;;21.43;13.30;;;9.20;99.90;;;;;;4999637;28;20458;-66
2020/12/07 12:20:42;;;;;;;21.10;13.87;;;9.20;99.90;;;;;;4998987;28;20446;-66
2020/12/07 12:23:08;;;;;;;26.27;12.83;;;9.20;99.90;;;;;;4998179;28;20442;-65
2020/12/07 12:25:38;;;;;;;24.20;13.17;;;9.10;99.90;;;;;;4996191;28;20446;-67
2020/12/07 12:28:06;;;;;;;27.53;13.77;;;9.10;99.90;;;;;;4993609;28;20434;-66
2020/12/07 12:30:33;;;;;;;20.83;14.67;;;9.10;99.90;;;;;;4995179;28;20450;-65
2020/12/07 12:33:00;;;;;;;21.27;13.90;;;9.10;99.90;;;;;;4995409;28;20454;-66
2020/12/07 12:35:27;;;;;;;24.83;13.77;;;9.20;99.90;;;;;;4993063;28;20866;-66
2020/12/07 12:37:53;;;;;;;22.23;15.13;;;9.20;99.90;;;;;;4995704;28;20501;-65
2020/12/07 12:40:20;;;;;;;24.57;14.83;;;9.20;99.90;;;;;;4995698;28;20839;-66
2020/12/07 12:42:47;;;;;;;22.70;13.67;;;9.10;99.90;;;;;;4993249;28;20447;-65
2020/12/07 12:45:14;;;;;;;21.67;14.40;;;9.10;99.90;;;;;;4996632;28;20457;-65
2020/12/07 12:47:41;;;;;;;18.43;12.20;;;9.10;99.90;;;;;;4994852;28;20567;-66
2020/12/07 12:50:08;;;;;;;25.30;14.70;;;9.10;99.90;;;;;;4995917;28;20458;-66
2020/12/07 12:52:34;;;;;;;24.37;14.83;;;9.10;99.90;;;;;;4996469;28;20931;-66
2020/12/07 12:55:01;;;;;;;21.30;13.63;;;9.00;99.90;;;;;;4996051;28;20488;-66
2020/12/07 12:57:28;;;;;;;25.37;15.67;;;8.90;99.90;;;;;;4996323;28;20485;-65
2020/12/07 12:59:55;;;;;;;26.70;14.50;;;8.90;99.90;;;;;;4996392;28;20480;-67
2020/12/07 13:02:22;;;;;;;23.27;15.00;;;8.80;99.90;;;;;;4996614;28;20879;-66
2020/12/07 13:04:49;;;;;;;24.63;14.87;;;8.70;99.90;;;;;;4996390;28;20454;-66
2020/12/07 13:07:15;;;;;;;27.20;14.83;;;8.60;99.90;;;;;;4996144;28;20481;-67
2020/12/07 13:09:42;;;;;;;25.00;15.83;;;8.60;99.90;;;;;;4996127;28;20465;-66
2020/12/07 13:12:09;;;;;;;23.33;15.17;;;8.50;99.90;;;;;;4996429;28;20569;-66
2020/12/07 13:14:35;;;;;;;24.00;14.90;;;8.50;99.90;;;;;;4996036;28;20977;-67
2020/12/07 13:17:05;;;;;;;24.70;15.20;;;8.50;99.90;;;;;;4995717;28;20481;-65
2020/12/07 13:19:33;;;;;;;26.03;15.87;;;8.60;99.90;;;;;;4996114;28;20953;-66
2020/12/07 13:22:07;;;;;;;24.90;16.60;;;8.60;99.90;;;;;;4995877;28;20481;-67
2020/12/07 13:24:41;;;;;;;28.03;14.00;;;8.50;99.90;;;;;;4995986;28;20442;-67
2020/12/07 13:27:22;;;;;;;20.70;14.23;;;8.60;99.90;;;;;;4996745;28;20434;-67
2020/12/07 13:29:49;;;;;;;24.30;14.10;;;8.60;99.90;;;;;;4996218;28;20454;-66
2020/12/07 13:32:15;;;;;;;25.40;14.57;;;8.50;99.90;;;;;;4996200;28;20450;-66
2020/12/07 13:34:43;;;;;;;26.00;14.77;;;8.60;99.90;;;;;;4995844;28;20508;-67
2020/12/07 13:37:09;;;;;;;25.23;15.43;;;8.60;99.90;;;;;;4996822;28;20450;-67
2020/12/07 13:39:37;;;;;;;25.07;15.90;;;8.60;99.90;;;;;;4996421;28;20927;-67
2020/12/07 13:42:04;;;;;;;23.67;14.73;;;8.70;99.90;;;;;;4995639;28;20449;-66
2020/12/07 13:44:31;;;;;;;20.50;13.17;;;8.70;99.90;;;;;;4996030;28;20525;-68
2020/12/07 13:46:58;;;;;;;17.73;11.23;;;8.70;99.90;;;;;;4999834;28;20453;-66
2020/12/07 13:49:25;;;;;;;20.10;11.60;;;8.80;99.90;;;;;;4999939;28;20450;-67
2020/12/07 13:51:53;;;;;;;18.63;11.30;;;8.80;99.90;;;;;;4999725;28;20456;-66
2020/12/07 13:54:20;;;;;;;20.50;11.20;;;8.80;99.90;;;;;;4999337;28;20484;-67
2020/12/07 13:56:47;;;;;;;15.30;10.83;;;8.80;99.90;;;;;;4998895;28;20845;-67
2020/12/07 13:59:13;;;;;;;16.23;9.40;;;8.80;99.90;;;;;;4998827;28;20975;-67
2020/12/07 14:01:40;;;;;;;16.20;9.57;;;8.90;99.90;;;;;;4998269;28;20456;-65
2020/12/07 14:04:18;;;;;;;10.90;8.43;;;8.90;99.90;;;;;;4999382;28;20454;-66
2020/12/07 14:06:45;;;;;;;13.80;8.90;;;8.90;99.90;;;;;;4999370;28;20489;-65
2020/12/07 14:09:12;;;;;;;13.60;7.87;;;8.90;99.90;;;;;;5000957;28;20470;-66
2020/12/07 14:11:39;;;;;;;14.27;7.83;;;8.90;99.90;;;;;;4998727;28;20464;-66
2020/12/07 14:14:08;;;;;;;10.47;7.10;;;9.00;99.90;;;;;;5000976;28;20438;-66
2020/12/07 14:16:35;;;;;;;10.47;7.63;;;9.00;99.90;;;;;;4998034;28;20474;-65
2020/12/07 14:19:05;;;;;;;10.37;6.50;;;9.00;99.90;;;;;;4999098;28;20795;-65
2020/12/07 14:22:05;;;;;;;9.00;6.53;;;9.00;99.90;;;;;;4996413;28;20441;-66
2020/12/07 14:24:44;;;;;;;8.53;5.73;;;9.00;99.90;;;;;;4997496;28;20445;-65
2020/12/07 14:27:22;;;;;;;7.87;5.80;;;9.10;99.90;;;;;;4997825;28;20449;-66
2020/12/07 14:41:06;;;;;;;12.70;7.53;;;9.00;99.90;;;;;;4940098;29;20776;-67
2020/12/07 14:43:33;;;;;;;8.83;5.93;;;9.00;99.90;;;;;;4975192;28;20450;-66
2020/12/07 14:46:03;;;;;;;8.60;5.43;;;8.90;99.90;;;;;;4999671;28;20442;-66
2020/12/07 14:48:31;;;;;;;7.20;5.20;;;8.90;99.90;;;;;;4997879;28;20492;-66
2020/12/07 14:51:04;;;;;;;7.23;4.90;;;8.90;99.90;;;;;;4994587;28;20442;-67
2020/12/07 14:53:32;;;;;;;6.00;4.43;;;8.80;99.90;;;;;;4998670;28;20456;-67
2020/12/07 14:56:04;;;;;;;7.07;5.10;;;8.80;99.90;;;;;;4996356;28;20565;-65
2020/12/07 15:01:44;;;;;;;7.47;3.97;;;8.70;99.90;;;;;;4986324;28;20584;-66
2020/12/07 15:06:57;;;;;;;5.50;4.50;;;8.60;99.90;;;;;;4987866;28;20466;-68
2020/12/07 15:12:32;;;;;;;4.93;3.83;;;8.40;99.90;;;;;;4996667;28;20426;-67
2020/12/07 15:14:59;;;;;;;4.17;3.70;;;8.40;99.90;;;;;;4996728;28;20525;-66
2020/12/07 15:17:26;;;;;;;6.57;4.40;;;8.30;99.90;;;;;;4994983;28;20482;-66